createdAt,value
2022-10-30T00:00:04.710Z,100838.52
2022-10-30T00:03:09.737Z,100835.84
2022-10-30T00:05:54.940Z,100836.65
2022-10-30T00:08:36.722Z,100836.37
2022-10-30T00:11:10.774Z,100838.02
2022-10-30T00:13:44.346Z,100832.67
2022-10-30T00:16:19.972Z,100830.89
2022-10-30T00:18:56.597Z,100833.79
2022-10-30T00:21:27.277Z,100832.02
2022-10-30T00:24:08.917Z,100828.95
2022-10-30T00:26:43.649Z,100828.21
2022-10-30T00:29:11.987Z,100825.67
2022-10-30T00:31:50.594Z,100825.42
2022-10-30T00:34:35.966Z,100828.42
2022-10-30T00:37:12.933Z,100833.30
2022-10-30T00:39:44.712Z,100830.11
2022-10-30T00:42:32.878Z,100827.52
2022-10-30T00:45:05.614Z,100831.83
2022-10-30T00:48:08.659Z,100833.36
2022-10-30T00:50:58.657Z,100835.61
2022-10-30T00:53:35.522Z,100827.98
2022-10-30T00:56:15.599Z,100823.45
2022-10-30T00:59:07.878Z,100821.23
2022-10-30T01:02:16.612Z,100827.39
2022-10-30T01:05:00.352Z,100831.70
2022-10-30T01:07:46.491Z,100830.29
2022-10-30T01:10:22.312Z,100830.92
2022-10-30T01:12:58.898Z,100826.28
2022-10-30T01:15:39.059Z,100829.17
2022-10-30T01:18:28.750Z,100835.30
2022-10-30T01:22:03.617Z,100834.45
2022-10-30T01:25:19.053Z,100830.69
2022-10-30T01:28:17.736Z,100829.63
2022-10-30T01:30:55.691Z,100826.31
2022-10-30T01:34:16.562Z,100823.98
2022-10-30T01:37:45.706Z,100825.77
2022-10-30T01:40:28.891Z,100823.09
2022-10-30T01:43:02.763Z,100818.13
2022-10-30T01:46:09.056Z,100809.54
2022-10-30T01:49:07.188Z,100804.35
2022-10-30T01:52:25.745Z,100812.80
2022-10-30T01:58:42.560Z,100817.31
2022-10-30T02:01:15.721Z,100814.02
2022-10-30T02:04:07.910Z,100807.70
2022-10-30T02:06:48.707Z,100797.10
2022-10-30T02:09:20.274Z,100790.41
2022-10-30T02:12:06.810Z,100788.40
2022-10-30T02:14:49.848Z,100792.17
2022-10-30T02:17:26.211Z,100790.80
2022-10-30T02:19:55.406Z,100791.54
2022-10-30T02:22:29.974Z,100785.38
2022-10-30T02:25:22.273Z,100775.11
2022-10-30T02:28:04.288Z,100779.98
2022-10-30T02:31:07.021Z,100776.23
2022-10-30T02:37:36.891Z,100772.25
2022-10-30T02:40:17.380Z,100777.53
2022-10-30T02:45:52.295Z,100793.70
2022-10-30T02:48:58.339Z,100800.42
2022-10-30T02:51:24.573Z,100800.15
2022-10-30T02:53:52.404Z,100799.88
2022-10-30T02:56:21.423Z,100807.66
2022-10-30T02:58:57.080Z,100808.47
2022-10-30T03:01:25.364Z,100809.62
2022-10-30T03:04:02.052Z,100812.25
2022-10-30T03:06:30.771Z,100815.71
2022-10-30T03:08:59.105Z,100817.27
2022-10-30T03:11:30.045Z,100820.41
2022-10-30T03:13:58.097Z,100824.44
2022-10-30T03:16:34.448Z,100828.84
2022-10-30T03:19:23.378Z,100831.55
2022-10-30T03:22:06.868Z,100834.85
2022-10-30T03:24:46.802Z,100836.73
2022-10-30T03:27:15.029Z,100828.20
2022-10-30T03:29:43.181Z,100825.41
2022-10-30T03:32:13.652Z,100823.70
2022-10-30T03:34:50.463Z,100826.27
2022-10-30T03:37:21.053Z,100827.36
2022-10-30T03:39:49.948Z,100821.65
2022-10-30T03:42:19.249Z,100822.03
2022-10-30T03:44:50.439Z,100828.23
2022-10-30T03:47:40.531Z,100835.51
2022-10-30T03:50:27.543Z,100840.83
2022-10-30T03:52:58.883Z,100843.71
2022-10-30T03:55:51.238Z,100842.45
2022-10-30T03:58:34.135Z,100832.21
2022-10-30T04:01:07.343Z,100830.35
2022-10-30T04:03:37.810Z,100825.92
2022-10-30T04:06:10.276Z,100827.04
2022-10-30T04:08:41.752Z,100831.06
2022-10-30T04:11:10.924Z,100836.83
2022-10-30T04:13:41.964Z,100835.83
2022-10-30T04:16:11.794Z,100829.08
2022-10-30T04:18:59.702Z,100824.20
2022-10-30T04:21:55.587Z,100818.29
2022-10-30T04:24:43.921Z,100813.78
2022-10-30T04:27:23.725Z,100817.13
2022-10-30T04:29:56.165Z,100814.29
2022-10-30T04:32:26.619Z,100815.92
2022-10-30T04:35:39.683Z,100808.48
2022-10-30T04:39:03.339Z,100807.55
2022-10-30T04:45:58.940Z,100804.41
2022-10-30T04:48:29.259Z,100798.91
2022-10-30T04:51:03.491Z,100793.71
2022-10-30T04:53:38.993Z,100794.02
2022-10-30T04:56:11.542Z,100795.17
2022-10-30T04:59:26.803Z,100802.19
2022-10-30T05:01:55.411Z,100805.38
2022-10-30T05:04:45.969Z,100800.94
2022-10-30T05:07:18.971Z,100791.80
2022-10-30T05:10:02.790Z,100782.52
2022-10-30T05:12:46.441Z,100782.69
2022-10-30T05:15:14.722Z,100789.92
2022-10-30T05:17:45.986Z,100795.42
2022-10-30T05:20:18.800Z,100801.19
2022-10-30T05:22:57.118Z,100800.83
2022-10-30T05:25:28.434Z,100805.98
2022-10-30T05:28:06.622Z,100804.51
2022-10-30T05:30:40.176Z,100799.51
2022-10-30T05:33:15.878Z,100791.96
2022-10-30T05:35:46.389Z,100789.88
2022-10-30T05:38:14.355Z,100791.84
2022-10-30T05:40:46.604Z,100797.86
2022-10-30T05:43:14.688Z,100797.77
2022-10-30T05:45:44.574Z,100800.23
2022-10-30T05:48:16.200Z,100806.55
2022-10-30T05:50:54.379Z,100815.33
2022-10-30T05:53:34.192Z,100822.05
2022-10-30T05:56:07.122Z,100822.86
2022-10-30T05:58:40.567Z,100812.70
2022-10-30T06:01:11.243Z,100809.84
2022-10-30T06:03:45.355Z,100809.05
2022-10-30T06:06:24.391Z,100806.50
2022-10-30T06:09:07.389Z,100810.05
2022-10-30T06:11:54.093Z,100811.86
2022-10-30T06:14:31.954Z,100813.98
2022-10-30T06:17:00.172Z,100813.83
2022-10-30T06:19:27.766Z,100813.49
2022-10-30T06:22:14.439Z,100814.50
2022-10-30T06:25:00.876Z,100814.27
2022-10-30T06:28:15.976Z,100814.77
2022-10-30T06:30:57.099Z,100816.81
2022-10-30T06:33:27.721Z,100819.12
2022-10-30T06:36:06.400Z,100821.79
2022-10-30T06:38:47.099Z,100824.52
2022-10-30T06:41:30.531Z,100827.18
2022-10-30T06:44:35.299Z,100820.36
2022-10-30T06:47:17.254Z,100819.73
2022-10-30T06:50:11.428Z,100821.34
2022-10-30T06:52:40.035Z,100833.11
2022-10-30T06:55:21.965Z,100840.53
2022-10-30T06:58:15.634Z,100842.71
2022-10-30T07:01:30.388Z,100848.07
2022-10-30T07:04:32.469Z,100850.20
2022-10-30T07:07:31.212Z,100844.75
2022-10-30T07:20:30.017Z,100845.02
2022-10-30T07:23:14.122Z,100852.50
2022-10-30T08:14:27.508Z,100846.36
2022-10-30T08:18:46.124Z,100839.75
2022-10-30T08:22:14.840Z,100838.23
2022-10-30T08:26:01.829Z,100839.00
2022-10-30T08:43:07.560Z,100840.90
2022-10-30T08:46:18.406Z,100838.02
2022-10-30T08:48:52.866Z,100836.91
2022-10-30T08:51:35.548Z,100837.23
2022-10-30T08:54:10.347Z,100844.05
2022-10-30T08:56:38.240Z,100846.98
2022-10-30T08:59:17.221Z,100843.13
2022-10-30T09:02:06.110Z,100841.84
2022-10-30T09:08:54.997Z,100844.63
2022-10-30T09:12:43.283Z,100848.86
2022-10-30T09:15:37.027Z,100848.38
2022-10-30T09:18:19.073Z,100851.16
2022-10-30T09:20:49.964Z,100847.20
2022-10-30T09:23:44.547Z,100841.90
2022-10-30T09:26:55.587Z,100838.66
2022-10-30T09:29:42.235Z,100836.36
2022-10-30T09:32:51.195Z,100831.77
2022-10-30T09:35:26.566Z,100833.40
2022-10-30T09:37:58.338Z,100834.07
2022-10-30T09:41:37.538Z,100834.33
2022-10-30T09:49:14.956Z,100835.48
2022-10-30T09:52:13.861Z,100836.01
2022-10-30T09:55:09.967Z,100834.86
2022-10-30T09:58:28.474Z,100837.48
2022-10-30T10:09:57.137Z,100838.23
2022-10-30T10:23:39.360Z,100835.81
2022-10-30T12:27:42.128Z,100738.48
2022-10-30T12:32:25.160Z,100738.47
2022-10-30T12:40:11.831Z,100739.66
2022-10-30T13:05:06.761Z,100731.99
2022-10-30T13:17:26.156Z,100732.88
2022-10-30T13:24:33.961Z,100733.70
2022-10-30T13:27:26.997Z,100735.34
2022-10-30T13:30:48.284Z,100731.00
2022-10-30T13:34:22.695Z,100729.39
2022-10-30T14:21:07.164Z,100713.00
2022-10-30T14:25:04.412Z,100708.75
2022-10-30T14:28:22.995Z,100709.46
2022-10-30T16:20:23.422Z,100696.07
2022-10-30T16:23:07.984Z,100699.09
2022-10-30T16:26:00.542Z,100700.37
2022-10-30T16:29:36.684Z,100704.32
2022-10-30T16:36:34.965Z,100703.95
2022-10-30T16:39:27.331Z,100705.46
2022-10-30T16:42:14.363Z,100701.48
2022-10-30T16:45:30.840Z,100701.33
2022-10-30T16:48:26.138Z,100697.27
2022-10-30T16:51:22.500Z,100696.52
2022-10-30T16:54:03.239Z,100695.10
2022-10-30T17:01:20.509Z,100698.30
2022-10-30T17:04:03.815Z,100698.54
2022-10-30T17:07:28.704Z,100697.06
2022-10-30T17:10:46.811Z,100700.54
2022-10-30T17:14:00.557Z,100702.77
2022-10-30T17:16:42.898Z,100703.42
2022-10-30T17:20:18.620Z,100704.46
2022-10-30T17:23:55.784Z,100706.48
2022-10-30T17:26:41.960Z,100706.45
2022-10-30T17:30:30.221Z,100708.84
2022-10-30T17:33:46.324Z,100710.39
2022-10-30T17:36:23.804Z,100710.61
2022-10-30T17:42:02.882Z,100714.35
2022-10-30T17:44:48.777Z,100713.33
2022-10-30T17:48:11.311Z,100708.04
2022-10-30T17:50:54.173Z,100707.43
2022-10-30T17:53:38.739Z,100706.98
2022-10-30T18:00:32.988Z,100704.36
2022-10-30T18:03:28.387Z,100696.91
2022-10-30T18:06:03.848Z,100695.69
2022-10-30T18:08:49.782Z,100694.48
2022-10-30T18:11:41.949Z,100695.60
2022-10-30T18:14:17.545Z,100695.88
2022-10-30T18:16:45.929Z,100698.08
2022-10-30T18:19:30.038Z,100697.52
2022-10-30T18:22:06.377Z,100696.80
2022-10-30T18:24:42.961Z,100699.35
2022-10-30T18:32:28.467Z,100698.58
2022-10-30T18:34:55.887Z,100697.39
2022-10-30T18:37:23.323Z,100698.14
2022-10-30T18:39:50.731Z,100698.02
2022-10-30T18:42:18.262Z,100699.92
2022-10-30T18:44:45.714Z,100695.66
2022-10-30T18:47:20.639Z,100692.10
2022-10-30T18:49:49.222Z,100692.98
2022-10-30T18:52:16.536Z,100696.31
2022-10-30T18:54:44.554Z,100697.98
2022-10-30T18:57:13.056Z,100695.76
2022-10-30T18:59:40.570Z,100694.48
2022-10-30T19:02:23.628Z,100691.92
2022-10-30T19:04:51.135Z,100694.92
2022-10-30T19:07:18.646Z,100690.64
2022-10-30T19:09:46.044Z,100692.48
2022-10-30T19:12:13.744Z,100690.89
2022-10-30T19:14:41.625Z,100695.73
2022-10-30T19:17:09.132Z,100697.98
2022-10-30T19:19:36.547Z,100696.92
2022-10-30T19:22:03.987Z,100696.00
2022-10-30T19:24:31.386Z,100698.82
2022-10-30T19:26:58.747Z,100697.46
2022-10-30T19:29:26.155Z,100693.91
2022-10-30T19:31:53.708Z,100695.82
2022-10-30T19:34:21.102Z,100697.55
2022-10-30T19:36:48.557Z,100698.53
2022-10-30T19:39:18.767Z,100701.04
2022-10-30T19:41:46.945Z,100700.78
2022-10-30T19:44:14.521Z,100698.91
2022-10-30T19:46:41.965Z,100695.94
2022-10-30T19:49:20.527Z,100696.27
2022-10-30T19:51:48.304Z,100699.63
2022-10-30T19:54:15.968Z,100699.27
2022-10-30T19:56:43.436Z,100697.36
2022-10-30T19:59:15.237Z,100696.27
2022-10-30T20:01:43.980Z,100697.77
2022-10-30T20:04:12.176Z,100699.99
2022-10-30T20:06:39.579Z,100698.04
2022-10-30T20:09:10.980Z,100695.91
2022-10-30T20:11:38.434Z,100696.98
2022-10-30T20:14:05.814Z,100696.75
2022-10-30T20:16:33.227Z,100695.13
2022-10-30T20:19:00.732Z,100695.81
2022-10-30T20:21:28.260Z,100693.85
2022-10-30T20:23:55.686Z,100692.25
2022-10-30T20:26:28.971Z,100694.27
2022-10-30T20:28:59.039Z,100686.89
2022-10-30T20:31:27.389Z,100684.52
2022-10-30T20:33:54.803Z,100682.23
2022-10-30T20:36:22.261Z,100684.48
2022-10-30T20:38:49.778Z,100680.98
2022-10-30T20:41:24.146Z,100679.35
2022-10-30T20:43:51.838Z,100678.66
2022-10-30T20:46:20.139Z,100681.08
2022-10-30T20:48:47.777Z,100683.84
2022-10-30T20:51:15.353Z,100687.32
2022-10-30T20:53:42.912Z,100686.09
2022-10-30T20:56:11.055Z,100689.86
2022-10-30T20:58:39.571Z,100692.91
2022-10-30T21:01:07.142Z,100692.16
2022-10-30T21:03:34.597Z,100691.38
2022-10-30T21:06:02.118Z,100691.12
2022-10-30T21:08:32.593Z,100693.88
2022-10-30T21:11:08.286Z,100692.75
2022-10-30T21:13:36.597Z,100696.04
2022-10-30T21:16:07.964Z,100697.92
2022-10-30T21:18:36.066Z,100700.10
2022-10-30T21:21:07.654Z,100701.00
2022-10-30T21:23:35.023Z,100699.66
2022-10-30T21:26:06.374Z,100698.08
2022-10-30T21:28:33.864Z,100698.11
2022-10-30T21:31:08.695Z,100698.79
2022-10-30T21:33:37.556Z,100697.07
2022-10-30T21:36:13.091Z,100701.91
2022-10-30T21:38:42.698Z,100702.84
2022-10-30T21:41:13.066Z,100699.20
2022-10-30T21:43:40.917Z,100701.83
2022-10-30T21:46:11.789Z,100701.08
2022-10-30T21:48:39.557Z,100699.30
2022-10-30T21:51:16.644Z,100700.51
2022-10-30T21:53:45.424Z,100700.89
2022-10-30T21:56:20.819Z,100701.77
2022-10-30T21:58:48.651Z,100702.68
2022-10-30T22:01:26.105Z,100699.55
2022-10-30T22:03:54.122Z,100698.75
2022-10-30T22:06:22.103Z,100696.52
2022-10-30T22:08:53.043Z,100694.89
2022-10-30T22:11:23.284Z,100696.55
2022-10-30T22:13:59.938Z,100697.23
2022-10-30T22:16:30.501Z,100697.31
2022-10-30T22:18:58.826Z,100695.30
2022-10-30T22:21:27.326Z,100694.04
2022-10-30T22:23:54.687Z,100694.55
2022-10-30T22:26:23.346Z,100693.92
2022-10-30T22:28:58.670Z,100698.48
2022-10-30T22:31:29.399Z,100697.75
2022-10-30T22:34:00.175Z,100697.47
2022-10-30T22:36:32.599Z,100698.77
2022-10-30T22:39:11.802Z,100694.88
2022-10-30T22:41:40.384Z,100696.73
2022-10-30T22:44:13.701Z,100700.77
2022-10-30T22:46:41.394Z,100700.16
2022-10-30T22:49:09.111Z,100697.21
2022-10-30T22:51:38.390Z,100699.62
2022-10-30T22:54:14.038Z,100699.38
2022-10-30T22:56:42.287Z,100703.83
2022-10-30T22:59:12.792Z,100702.29
2022-10-30T23:01:41.364Z,100701.58
2022-10-30T23:04:11.707Z,100698.43
2022-10-30T23:06:39.170Z,100700.17
2022-10-30T23:09:21.548Z,100701.14
2022-10-30T23:11:49.490Z,100702.46
2022-10-30T23:14:18.742Z,100697.92
2022-10-30T23:16:46.153Z,100698.96
2022-10-30T23:19:13.547Z,100699.52
2022-10-30T23:21:41.008Z,100700.57
2022-10-30T23:24:08.489Z,100708.86
2022-10-30T23:26:36.154Z,100709.55
2022-10-30T23:29:03.762Z,100707.90
2022-10-30T23:31:39.200Z,100712.19
2022-10-30T23:34:11.795Z,100712.62
2022-10-30T23:36:40.321Z,100712.20
2022-10-30T23:39:13.301Z,100709.27
2022-10-30T23:41:41.230Z,100709.89
2022-10-30T23:44:13.390Z,100712.25
2022-10-30T23:46:40.748Z,100713.45
2022-10-30T23:49:08.149Z,100715.15
2022-10-30T23:51:35.672Z,100717.53
2022-10-30T23:54:03.896Z,100715.23
2022-10-30T23:56:31.435Z,100715.88
2022-10-30T23:58:59.698Z,100717.56
